Hlavní strana
METAR-TAF:

METAR-TAF

Letiště :

Curaçao, Nizozemské Antily

zeměpisná šířka: 12-12N, zeměpisná délka: 068-58W, výška: 9 m

Aktuální stav počasí

Zpráva byla vytvořena před 23 minutami, v 10:29 UTC
Východní vítr 13 kt, proměnlivý mezi východoseverovýchodním a jihovýchodním
Teplota 26°C
Vlhkost vzduchu 84%
Tlak 1010 hPa
Viditelnost: 8000 m
bouřka, slabý déšť

METAR: TNCC 261029Z AUTO 10013KT 070V130 8000 -TSRA NCD 26/23 Q1010 RETS NOSIG

Čas: 06:52 (10:52 UTC)

Předpověď počasí

Zpráva byla vytvořena před 6 hodinami a 52 minutami, v 04:00 UTC
Předpověď platná od 26 v 06 UTC do 27 v 06 UTC
Východní vítr 12 kt
Viditelnost 10 km a více
Polojasno ve výšce 1800 ft
Dočasný
od 26 v 06 UTC do 26 v 14 UTC
Viditelnost: 7000 m
Oblačno až skoro zataženo ve výšce 1500 ft
dešťové přeháňky

TAF: TNCC 260400Z 2606/2706 10012KT 9999 SCT018 TEMPO 2606/2614 7000 SHRA BKN015

Stav a předpovědi počasí z více než 4 000 letišť (zprávy METAR a TAF).

Červené a žluté tečky na mapě představují dostupné meteorologické stanice.

Když kurzor umístíte na tečku, zobrazí se název stanice.

Pak kliknutím zobrazíte stav a předpověď počasí.

Chcete-li změnit mapu, kliknutím na zelené tlačítko se znaménkem +mapu přiblížíte, kliknutím na zelené tlačítko se znaménkem – mapu oddálíte a kliknutím na zelené šipky přejdete na sousední mapy.


METAR-TAF: